sensor_id;sensor_type;location;lat;lon;timestamp;P1;durP1;ratioP1;P2;durP2;ratioP2
2480;SDS011;57396;48.742;9.128;2024-03-06T00:02:17;12.17;;;6.67;;
2480;SDS011;57396;48.742;9.128;2024-03-06T00:04:43;8.83;;;5.90;;
2480;SDS011;57396;48.742;9.128;2024-03-06T00:07:08;9.93;;;5.60;;
2480;SDS011;57396;48.742;9.128;2024-03-06T00:09:34;7.90;;;5.63;;
2480;SDS011;57396;48.742;9.128;2024-03-06T00:11:59;9.30;;;4.97;;
2480;SDS011;57396;48.742;9.128;2024-03-06T00:14:25;6.93;;;4.70;;
2480;SDS011;57396;48.742;9.128;2024-03-06T00:16:50;8.57;;;5.77;;
2480;SDS011;57396;48.742;9.128;2024-03-06T00:19:16;11.40;;;6.27;;
2480;SDS011;57396;48.742;9.128;2024-03-06T00:21:42;13.83;;;6.70;;
2480;SDS011;57396;48.742;9.128;2024-03-06T00:24:08;9.07;;;6.80;;
2480;SDS011;57396;48.742;9.128;2024-03-06T00:26:33;12.57;;;6.97;;
2480;SDS011;57396;48.742;9.128;2024-03-06T00:28:59;9.70;;;6.83;;
2480;SDS011;57396;48.742;9.128;2024-03-06T00:31:24;6.80;;;5.97;;
2480;SDS011;57396;48.742;9.128;2024-03-06T00:33:50;8.27;;;6.30;;
2480;SDS011;57396;48.742;9.128;2024-03-06T00:36:16;10.60;;;6.90;;
2480;SDS011;57396;48.742;9.128;2024-03-06T00:38:41;9.60;;;6.40;;
2480;SDS011;57396;48.742;9.128;2024-03-06T00:41:06;7.37;;;5.53;;
2480;SDS011;57396;48.742;9.128;2024-03-06T00:43:32;8.10;;;5.97;;
2480;SDS011;57396;48.742;9.128;2024-03-06T00:45:57;6.40;;;5.33;;
2480;SDS011;57396;48.742;9.128;2024-03-06T00:48:24;8.00;;;6.03;;
2480;SDS011;57396;48.742;9.128;2024-03-06T00:50:50;8.30;;;4.93;;
2480;SDS011;57396;48.742;9.128;2024-03-06T00:53:15;9.60;;;5.73;;
2480;SDS011;57396;48.742;9.128;2024-03-06T00:55:41;8.50;;;5.53;;
2480;SDS011;57396;48.742;9.128;2024-03-06T00:58:06;7.13;;;6.10;;
2480;SDS011;57396;48.742;9.128;2024-03-06T01:00:32;8.80;;;6.33;;
2480;SDS011;57396;48.742;9.128;2024-03-06T01:02:57;11.53;;;5.70;;
2480;SDS011;57396;48.742;9.128;2024-03-06T01:05:23;6.83;;;5.37;;
2480;SDS011;57396;48.742;9.128;2024-03-06T01:07:48;7.87;;;5.47;;
2480;SDS011;57396;48.742;9.128;2024-03-06T01:10:14;6.30;;;4.47;;
2480;SDS011;57396;48.742;9.128;2024-03-06T01:12:39;6.90;;;4.93;;
2480;SDS011;57396;48.742;9.128;2024-03-06T01:15:05;11.30;;;5.83;;
2480;SDS011;57396;48.742;9.128;2024-03-06T01:17:34;10.30;;;5.90;;
2480;SDS011;57396;48.742;9.128;2024-03-06T01:19:59;7.90;;;6.27;;
2480;SDS011;57396;48.742;9.128;2024-03-06T01:22:26;8.70;;;6.40;;
2480;SDS011;57396;48.742;9.128;2024-03-06T01:24:51;6.23;;;5.57;;
2480;SDS011;57396;48.742;9.128;2024-03-06T01:27:17;7.60;;;5.70;;
2480;SDS011;57396;48.742;9.128;2024-03-06T01:29:42;8.20;;;6.30;;
2480;SDS011;57396;48.742;9.128;2024-03-06T01:32:08;9.60;;;6.40;;
2480;SDS011;57396;48.742;9.128;2024-03-06T01:34:35;8.83;;;6.67;;
2480;SDS011;57396;48.742;9.128;2024-03-06T01:37:01;7.90;;;5.97;;
2480;SDS011;57396;48.742;9.128;2024-03-06T01:39:26;8.10;;;5.67;;
2480;SDS011;57396;48.742;9.128;2024-03-06T01:41:51;8.80;;;6.20;;
2480;SDS011;57396;48.742;9.128;2024-03-06T01:44:17;7.27;;;5.70;;
2480;SDS011;57396;48.742;9.128;2024-03-06T01:46:44;7.83;;;5.80;;
2480;SDS011;57396;48.742;9.128;2024-03-06T01:49:09;10.40;;;6.33;;
2480;SDS011;57396;48.742;9.128;2024-03-06T01:51:36;4.77;;;4.27;;
2480;SDS011;57396;48.742;9.128;2024-03-06T01:54:02;8.87;;;5.23;;
2480;SDS011;57396;48.742;9.128;2024-03-06T01:56:29;6.20;;;4.50;;
2480;SDS011;57396;48.742;9.128;2024-03-06T01:58:55;8.03;;;5.23;;
2480;SDS011;57396;48.742;9.128;2024-03-06T02:01:21;4.70;;;4.00;;
2480;SDS011;57396;48.742;9.128;2024-03-06T02:03:46;6.13;;;4.43;;
2480;SDS011;57396;48.742;9.128;2024-03-06T02:06:12;5.83;;;4.30;;
2480;SDS011;57396;48.742;9.128;2024-03-06T02:08:39;8.80;;;5.13;;
2480;SDS011;57396;48.742;9.128;2024-03-06T02:11:05;5.80;;;4.83;;
2480;SDS011;57396;48.742;9.128;2024-03-06T02:13:32;8.97;;;4.87;;
2480;SDS011;57396;48.742;9.128;2024-03-06T02:15:58;6.07;;;4.57;;
2480;SDS011;57396;48.742;9.128;2024-03-06T02:18:24;6.43;;;4.67;;
2480;SDS011;57396;48.742;9.128;2024-03-06T02:20:49;4.43;;;3.67;;
2480;SDS011;57396;48.742;9.128;2024-03-06T02:23:15;4.17;;;3.53;;
2480;SDS011;57396;48.742;9.128;2024-03-06T02:25:42;4.87;;;4.20;;
2480;SDS011;57396;48.742;9.128;2024-03-06T02:28:08;4.60;;;3.63;;
2480;SDS011;57396;48.742;9.128;2024-03-06T02:30:33;6.37;;;4.10;;
2480;SDS011;57396;48.742;9.128;2024-03-06T02:33:04;5.90;;;3.77;;
2480;SDS011;57396;48.742;9.128;2024-03-06T02:35:34;4.53;;;3.57;;
2480;SDS011;57396;48.742;9.128;2024-03-06T02:38:03;4.70;;;3.70;;
2480;SDS011;57396;48.742;9.128;2024-03-06T02:40:32;6.33;;;3.87;;
2480;SDS011;57396;48.742;9.128;2024-03-06T02:42:58;5.13;;;3.90;;
2480;SDS011;57396;48.742;9.128;2024-03-06T02:45:23;6.57;;;4.20;;
2480;SDS011;57396;48.742;9.128;2024-03-06T02:47:49;4.70;;;3.60;;
2480;SDS011;57396;48.742;9.128;2024-03-06T02:50:14;4.97;;;3.50;;
2480;SDS011;57396;48.742;9.128;2024-03-06T02:52:40;5.67;;;3.40;;
2480;SDS011;57396;48.742;9.128;2024-03-06T02:55:05;3.87;;;3.13;;
2480;SDS011;57396;48.742;9.128;2024-03-06T02:57:31;3.40;;;3.10;;
2480;SDS011;57396;48.742;9.128;2024-03-06T02:59:57;3.90;;;2.60;;
2480;SDS011;57396;48.742;9.128;2024-03-06T03:02:23;3.47;;;3.17;;
2480;SDS011;57396;48.742;9.128;2024-03-06T03:04:49;5.37;;;3.13;;
2480;SDS011;57396;48.742;9.128;2024-03-06T03:07:15;5.63;;;3.00;;
2480;SDS011;57396;48.742;9.128;2024-03-06T03:09:40;5.03;;;3.40;;
2480;SDS011;57396;48.742;9.128;2024-03-06T03:12:06;3.83;;;2.97;;
2480;SDS011;57396;48.742;9.128;2024-03-06T03:14:31;3.60;;;2.70;;
2480;SDS011;57396;48.742;9.128;2024-03-06T03:16:57;3.67;;;3.30;;
2480;SDS011;57396;48.742;9.128;2024-03-06T03:19:24;6.40;;;3.40;;
2480;SDS011;57396;48.742;9.128;2024-03-06T03:21:49;3.40;;;3.10;;
2480;SDS011;57396;48.742;9.128;2024-03-06T03:24:14;5.43;;;3.50;;
2480;SDS011;57396;48.742;9.128;2024-03-06T03:26:40;4.93;;;4.07;;
2480;SDS011;57396;48.742;9.128;2024-03-06T03:29:07;4.73;;;3.00;;
2480;SDS011;57396;48.742;9.128;2024-03-06T03:31:32;4.57;;;3.20;;
2480;SDS011;57396;48.742;9.128;2024-03-06T03:33:58;3.40;;;3.10;;
2480;SDS011;57396;48.742;9.128;2024-03-06T03:36:23;6.30;;;3.13;;
2480;SDS011;57396;48.742;9.128;2024-03-06T03:38:50;5.60;;;3.03;;
2480;SDS011;57396;48.742;9.128;2024-03-06T03:41:15;7.80;;;2.73;;
2480;SDS011;57396;48.742;9.128;2024-03-06T03:43:43;4.17;;;2.87;;
2480;SDS011;57396;48.742;9.128;2024-03-06T03:46:10;6.93;;;3.17;;
2480;SDS011;57396;48.742;9.128;2024-03-06T03:48:35;4.33;;;3.43;;
2480;SDS011;57396;48.742;9.128;2024-03-06T03:51:02;4.57;;;3.20;;
2480;SDS011;57396;48.742;9.128;2024-03-06T03:53:30;4.10;;;3.10;;
2480;SDS011;57396;48.742;9.128;2024-03-06T03:55:55;4.50;;;3.40;;
2480;SDS011;57396;48.742;9.128;2024-03-06T03:58:21;3.40;;;3.03;;
2480;SDS011;57396;48.742;9.128;2024-03-06T04:00:46;14.43;;;3.63;;
2480;SDS011;57396;48.742;9.128;2024-03-06T04:03:12;4.00;;;3.43;;
2480;SDS011;57396;48.742;9.128;2024-03-06T04:05:37;4.57;;;2.87;;
2480;SDS011;57396;48.742;9.128;2024-03-06T04:08:03;10.33;;;3.83;;
2480;SDS011;57396;48.742;9.128;2024-03-06T04:10:30;6.40;;;4.47;;
2480;SDS011;57396;48.742;9.128;2024-03-06T04:12:56;7.73;;;4.20;;
2480;SDS011;57396;48.742;9.128;2024-03-06T04:15:23;4.40;;;3.30;;
2480;SDS011;57396;48.742;9.128;2024-03-06T04:17:49;6.10;;;3.27;;
2480;SDS011;57396;48.742;9.128;2024-03-06T04:20:15;5.13;;;3.53;;
2480;SDS011;57396;48.742;9.128;2024-03-06T04:22:41;7.43;;;4.23;;
2480;SDS011;57396;48.742;9.128;2024-03-06T04:25:06;11.20;;;7.17;;
2480;SDS011;57396;48.742;9.128;2024-03-06T04:27:32;30.57;;;19.43;;
2480;SDS011;57396;48.742;9.128;2024-03-06T04:29:59;38.90;;;26.40;;
2480;SDS011;57396;48.742;9.128;2024-03-06T04:32:24;35.60;;;23.57;;
2480;SDS011;57396;48.742;9.128;2024-03-06T04:34:49;14.93;;;9.90;;
2480;SDS011;57396;48.742;9.128;2024-03-06T04:37:15;17.37;;;8.43;;
2480;SDS011;57396;48.742;9.128;2024-03-06T04:39:40;9.53;;;7.80;;
2480;SDS011;57396;48.742;9.128;2024-03-06T04:42:06;7.10;;;6.40;;
2480;SDS011;57396;48.742;9.128;2024-03-06T04:44:34;8.20;;;6.90;;
2480;SDS011;57396;48.742;9.128;2024-03-06T04:47:00;8.23;;;6.83;;
2480;SDS011;57396;48.742;9.128;2024-03-06T04:49:25;6.80;;;6.10;;
2480;SDS011;57396;48.742;9.128;2024-03-06T04:51:51;7.00;;;6.30;;
2480;SDS011;57396;48.742;9.128;2024-03-06T04:54:16;5.93;;;5.37;;
2480;SDS011;57396;48.742;9.128;2024-03-06T04:56:42;9.80;;;5.80;;
2480;SDS011;57396;48.742;9.128;2024-03-06T04:59:07;7.60;;;5.73;;
2480;SDS011;57396;48.742;9.128;2024-03-06T05:01:33;9.37;;;5.00;;
2480;SDS011;57396;48.742;9.128;2024-03-06T05:03:58;4.60;;;4.20;;
2480;SDS011;57396;48.742;9.128;2024-03-06T05:06:23;6.20;;;4.17;;
2480;SDS011;57396;48.742;9.128;2024-03-06T05:08:49;5.17;;;4.00;;
2480;SDS011;57396;48.742;9.128;2024-03-06T05:11:14;6.20;;;4.50;;
2480;SDS011;57396;48.742;9.128;2024-03-06T05:13:40;5.07;;;4.20;;
2480;SDS011;57396;48.742;9.128;2024-03-06T05:16:06;5.50;;;4.03;;
2480;SDS011;57396;48.742;9.128;2024-03-06T05:18:33;6.80;;;4.60;;
2480;SDS011;57396;48.742;9.128;2024-03-06T05:20:59;6.77;;;4.97;;
2480;SDS011;57396;48.742;9.128;2024-03-06T05:23:25;7.63;;;4.70;;
2480;SDS011;57396;48.742;9.128;2024-03-06T05:25:50;6.13;;;4.53;;
2480;SDS011;57396;48.742;9.128;2024-03-06T05:28:16;10.00;;;5.03;;
2480;SDS011;57396;48.742;9.128;2024-03-06T05:30:41;6.30;;;4.63;;
2480;SDS011;57396;48.742;9.128;2024-03-06T05:33:06;9.50;;;5.40;;
2480;SDS011;57396;48.742;9.128;2024-03-06T05:35:32;9.80;;;5.03;;
2480;SDS011;57396;48.742;9.128;2024-03-06T05:37:57;7.07;;;4.87;;
2480;SDS011;57396;48.742;9.128;2024-03-06T05:40:23;7.37;;;4.53;;
2480;SDS011;57396;48.742;9.128;2024-03-06T05:42:48;14.97;;;10.97;;
2480;SDS011;57396;48.742;9.128;2024-03-06T05:45:14;16.50;;;12.93;;
2480;SDS011;57396;48.742;9.128;2024-03-06T05:47:40;26.73;;;19.60;;
2480;SDS011;57396;48.742;9.128;2024-03-06T05:50:05;14.70;;;11.73;;
2480;SDS011;57396;48.742;9.128;2024-03-06T05:52:31;8.47;;;7.10;;
2480;SDS011;57396;48.742;9.128;2024-03-06T05:54:58;8.20;;;5.77;;
2480;SDS011;57396;48.742;9.128;2024-03-06T05:57:23;5.53;;;4.83;;
2480;SDS011;57396;48.742;9.128;2024-03-06T05:59:49;5.83;;;4.93;;
2480;SDS011;57396;48.742;9.128;2024-03-06T06:02:15;8.70;;;4.97;;
2480;SDS011;57396;48.742;9.128;2024-03-06T06:04:45;10.57;;;5.00;;
2480;SDS011;57396;48.742;9.128;2024-03-06T06:07:10;5.40;;;4.90;;
2480;SDS011;57396;48.742;9.128;2024-03-06T06:09:36;9.60;;;5.63;;
2480;SDS011;57396;48.742;9.128;2024-03-06T06:12:01;8.03;;;5.70;;
2480;SDS011;57396;48.742;9.128;2024-03-06T06:14:27;8.93;;;4.80;;
2480;SDS011;57396;48.742;9.128;2024-03-06T06:16:54;9.17;;;5.90;;
2480;SDS011;57396;48.742;9.128;2024-03-06T06:19:20;7.83;;;5.90;;
2480;SDS011;57396;48.742;9.128;2024-03-06T06:21:45;6.70;;;5.27;;
2480;SDS011;57396;48.742;9.128;2024-03-06T06:24:12;10.10;;;5.77;;
2480;SDS011;57396;48.742;9.128;2024-03-06T06:26:38;7.47;;;5.13;;
2480;SDS011;57396;48.742;9.128;2024-03-06T06:29:04;7.40;;;5.83;;
2480;SDS011;57396;48.742;9.128;2024-03-06T06:31:29;7.40;;;5.80;;
2480;SDS011;57396;48.742;9.128;2024-03-06T06:33:55;10.47;;;5.27;;
2480;SDS011;57396;48.742;9.128;2024-03-06T06:36:20;6.90;;;5.57;;
2480;SDS011;57396;48.742;9.128;2024-03-06T06:38:46;7.47;;;6.03;;
2480;SDS011;57396;48.742;9.128;2024-03-06T06:41:13;7.93;;;5.50;;
2480;SDS011;57396;48.742;9.128;2024-03-06T06:43:39;7.33;;;5.40;;
2480;SDS011;57396;48.742;9.128;2024-03-06T06:46:06;7.90;;;5.70;;
2480;SDS011;57396;48.742;9.128;2024-03-06T06:48:32;7.97;;;5.93;;
2480;SDS011;57396;48.742;9.128;2024-03-06T06:51:01;7.80;;;5.60;;
2480;SDS011;57396;48.742;9.128;2024-03-06T06:53:31;9.80;;;6.40;;
2480;SDS011;57396;48.742;9.128;2024-03-06T06:55:56;7.50;;;6.30;;
2480;SDS011;57396;48.742;9.128;2024-03-06T06:58:22;11.70;;;7.57;;
2480;SDS011;57396;48.742;9.128;2024-03-06T07:00:48;15.43;;;10.67;;
2480;SDS011;57396;48.742;9.128;2024-03-06T07:03:13;19.90;;;9.90;;
2480;SDS011;57396;48.742;9.128;2024-03-06T07:05:39;12.30;;;7.73;;
2480;SDS011;57396;48.742;9.128;2024-03-06T07:08:06;12.90;;;7.00;;
2480;SDS011;57396;48.742;9.128;2024-03-06T07:10:32;7.77;;;6.03;;
2480;SDS011;57396;48.742;9.128;2024-03-06T07:12:57;6.77;;;5.90;;
2480;SDS011;57396;48.742;9.128;2024-03-06T07:15:23;8.97;;;6.07;;
2480;SDS011;57396;48.742;9.128;2024-03-06T07:17:48;8.60;;;5.70;;
2480;SDS011;57396;48.742;9.128;2024-03-06T07:20:14;8.63;;;5.67;;
2480;SDS011;57396;48.742;9.128;2024-03-06T07:22:39;7.63;;;6.07;;
2480;SDS011;57396;48.742;9.128;2024-03-06T07:25:05;9.20;;;6.70;;
2480;SDS011;57396;48.742;9.128;2024-03-06T07:27:30;8.53;;;6.67;;
2480;SDS011;57396;48.742;9.128;2024-03-06T07:29:56;7.23;;;6.40;;
2480;SDS011;57396;48.742;9.128;2024-03-06T07:32:21;8.73;;;6.30;;
2480;SDS011;57396;48.742;9.128;2024-03-06T07:34:47;7.13;;;6.43;;
2480;SDS011;57396;48.742;9.128;2024-03-06T07:37:12;9.53;;;6.30;;
2480;SDS011;57396;48.742;9.128;2024-03-06T07:39:40;8.03;;;7.10;;
2480;SDS011;57396;48.742;9.128;2024-03-06T07:42:05;7.77;;;6.50;;
2480;SDS011;57396;48.742;9.128;2024-03-06T07:44:31;8.67;;;6.10;;
2480;SDS011;57396;48.742;9.128;2024-03-06T07:46:56;9.13;;;6.03;;
2480;SDS011;57396;48.742;9.128;2024-03-06T07:49:22;9.20;;;6.17;;
2480;SDS011;57396;48.742;9.128;2024-03-06T07:51:47;7.20;;;6.33;;
2480;SDS011;57396;48.742;9.128;2024-03-06T07:54:13;7.77;;;5.80;;
2480;SDS011;57396;48.742;9.128;2024-03-06T07:56:38;10.10;;;6.73;;
2480;SDS011;57396;48.742;9.128;2024-03-06T07:59:04;9.40;;;6.30;;
2480;SDS011;57396;48.742;9.128;2024-03-06T08:01:30;9.70;;;7.00;;
2480;SDS011;57396;48.742;9.128;2024-03-06T08:03:56;9.40;;;6.77;;
2480;SDS011;57396;48.742;9.128;2024-03-06T08:06:22;9.83;;;7.13;;
2480;SDS011;57396;48.742;9.128;2024-03-06T08:08:48;15.07;;;7.90;;
2480;SDS011;57396;48.742;9.128;2024-03-06T08:11:13;8.57;;;7.50;;
2480;SDS011;57396;48.742;9.128;2024-03-06T08:13:39;9.27;;;7.07;;
2480;SDS011;57396;48.742;9.128;2024-03-06T08:16:05;7.80;;;7.00;;
2480;SDS011;57396;48.742;9.128;2024-03-06T08:18:31;9.83;;;6.73;;
2480;SDS011;57396;48.742;9.128;2024-03-06T08:20:57;8.17;;;6.80;;
2480;SDS011;57396;48.742;9.128;2024-03-06T08:23:23;7.87;;;5.90;;
2480;SDS011;57396;48.742;9.128;2024-03-06T08:25:50;7.30;;;6.60;;
2480;SDS011;57396;48.742;9.128;2024-03-06T08:28:15;9.70;;;6.77;;
2480;SDS011;57396;48.742;9.128;2024-03-06T08:30:41;9.23;;;6.00;;
2480;SDS011;57396;48.742;9.128;2024-03-06T08:33:06;9.13;;;6.00;;
2480;SDS011;57396;48.742;9.128;2024-03-06T08:35:32;8.53;;;6.03;;
2480;SDS011;57396;48.742;9.128;2024-03-06T08:37:57;8.53;;;5.73;;
2480;SDS011;57396;48.742;9.128;2024-03-06T08:40:23;11.23;;;5.40;;
2480;SDS011;57396;48.742;9.128;2024-03-06T08:42:50;9.13;;;5.23;;
2480;SDS011;57396;48.742;9.128;2024-03-06T08:45:16;6.87;;;5.80;;
2480;SDS011;57396;48.742;9.128;2024-03-06T08:47:42;7.37;;;5.07;;
2480;SDS011;57396;48.742;9.128;2024-03-06T08:50:11;7.60;;;5.37;;
2480;SDS011;57396;48.742;9.128;2024-03-06T08:52:37;7.27;;;5.33;;
2480;SDS011;57396;48.742;9.128;2024-03-06T08:55:03;8.73;;;5.37;;
2480;SDS011;57396;48.742;9.128;2024-03-06T08:57:29;8.97;;;5.70;;
2480;SDS011;57396;48.742;9.128;2024-03-06T08:59:56;11.83;;;6.00;;
2480;SDS011;57396;48.742;9.128;2024-03-06T09:02:22;6.17;;;5.17;;
2480;SDS011;57396;48.742;9.128;2024-03-06T09:04:48;6.33;;;5.27;;
2480;SDS011;57396;48.742;9.128;2024-03-06T09:07:13;8.50;;;6.00;;
2480;SDS011;57396;48.742;9.128;2024-03-06T09:09:39;7.10;;;5.90;;
2480;SDS011;57396;48.742;9.128;2024-03-06T09:12:05;8.13;;;6.23;;
2480;SDS011;57396;48.742;9.128;2024-03-06T09:14:32;8.20;;;5.70;;
2480;SDS011;57396;48.742;9.128;2024-03-06T09:17:00;8.83;;;5.80;;
2480;SDS011;57396;48.742;9.128;2024-03-06T09:19:26;8.10;;;6.23;;
2480;SDS011;57396;48.742;9.128;2024-03-06T09:21:51;10.50;;;7.13;;
2480;SDS011;57396;48.742;9.128;2024-03-06T09:24:17;7.17;;;6.43;;
2480;SDS011;57396;48.742;9.128;2024-03-06T09:26:43;8.43;;;6.40;;
2480;SDS011;57396;48.742;9.128;2024-03-06T09:29:09;10.90;;;7.00;;
2480;SDS011;57396;48.742;9.128;2024-03-06T09:31:35;7.03;;;6.33;;
2480;SDS011;57396;48.742;9.128;2024-03-06T09:34:02;8.07;;;6.43;;
2480;SDS011;57396;48.742;9.128;2024-03-06T09:36:27;9.33;;;6.73;;
2480;SDS011;57396;48.742;9.128;2024-03-06T09:38:53;8.40;;;6.30;;
2480;SDS011;57396;48.742;9.128;2024-03-06T09:41:18;7.27;;;6.57;;
2480;SDS011;57396;48.742;9.128;2024-03-06T09:43:47;8.10;;;6.40;;
2480;SDS011;57396;48.742;9.128;2024-03-06T09:46:13;10.30;;;6.47;;
2480;SDS011;57396;48.742;9.128;2024-03-06T09:48:41;55.40;;;35.47;;
2480;SDS011;57396;48.742;9.128;2024-03-06T09:51:11;28.60;;;21.27;;
2480;SDS011;57396;48.742;9.128;2024-03-06T09:53:37;20.07;;;14.60;;
2480;SDS011;57396;48.742;9.128;2024-03-06T09:56:04;12.77;;;9.63;;
2480;SDS011;57396;48.742;9.128;2024-03-06T09:58:30;11.73;;;7.20;;
2480;SDS011;57396;48.742;9.128;2024-03-06T10:00:57;8.10;;;7.20;;
2480;SDS011;57396;48.742;9.128;2024-03-06T10:03:25;11.33;;;7.73;;
2480;SDS011;57396;48.742;9.128;2024-03-06T10:05:50;9.53;;;7.57;;
2480;SDS011;57396;48.742;9.128;2024-03-06T10:08:16;15.33;;;8.67;;
2480;SDS011;57396;48.742;9.128;2024-03-06T10:10:42;12.43;;;7.93;;
2480;SDS011;57396;48.742;9.128;2024-03-06T10:13:08;11.10;;;8.23;;
2480;SDS011;57396;48.742;9.128;2024-03-06T10:15:33;12.80;;;7.90;;
2480;SDS011;57396;48.742;9.128;2024-03-06T10:18:14;8.40;;;7.37;;
2480;SDS011;57396;48.742;9.128;2024-03-06T10:20:41;10.80;;;8.30;;
2480;SDS011;57396;48.742;9.128;2024-03-06T10:23:08;8.93;;;7.90;;
2480;SDS011;57396;48.742;9.128;2024-03-06T10:25:34;9.77;;;8.60;;
2480;SDS011;57396;48.742;9.128;2024-03-06T10:30:35;17.30;;;8.60;;
2480;SDS011;57396;48.742;9.128;2024-03-06T10:33:02;11.03;;;8.70;;
2480;SDS011;57396;48.742;9.128;2024-03-06T10:35:28;12.23;;;8.60;;
2480;SDS011;57396;48.742;9.128;2024-03-06T10:37:54;10.57;;;8.77;;
2480;SDS011;57396;48.742;9.128;2024-03-06T10:40:19;11.40;;;9.07;;
2480;SDS011;57396;48.742;9.128;2024-03-06T10:42:45;11.63;;;9.60;;
2480;SDS011;57396;48.742;9.128;2024-03-06T10:45:13;12.90;;;9.80;;
2480;SDS011;57396;48.742;9.128;2024-03-06T10:47:40;13.90;;;10.97;;
2480;SDS011;57396;48.742;9.128;2024-03-06T10:50:06;11.70;;;10.50;;
2480;SDS011;57396;48.742;9.128;2024-03-06T10:52:36;13.90;;;11.33;;
2480;SDS011;57396;48.742;9.128;2024-03-06T10:55:03;12.67;;;11.13;;
2480;SDS011;57396;48.742;9.128;2024-03-06T10:57:29;14.00;;;11.93;;
2480;SDS011;57396;48.742;9.128;2024-03-06T10:59:55;12.60;;;10.80;;
2480;SDS011;57396;48.742;9.128;2024-03-06T11:02:24;15.70;;;11.27;;
2480;SDS011;57396;48.742;9.128;2024-03-06T11:04:50;14.07;;;12.57;;
2480;SDS011;57396;48.742;9.128;2024-03-06T11:07:16;15.17;;;12.17;;
2480;SDS011;57396;48.742;9.128;2024-03-06T11:09:42;18.00;;;13.97;;
2480;SDS011;57396;48.742;9.128;2024-03-06T11:12:07;16.40;;;13.20;;
2480;SDS011;57396;48.742;9.128;2024-03-06T11:14:36;17.97;;;14.77;;
2480;SDS011;57396;48.742;9.128;2024-03-06T11:19:32;17.87;;;13.80;;
2480;SDS011;57396;48.742;9.128;2024-03-06T11:21:59;17.27;;;13.53;;
2480;SDS011;57396;48.742;9.128;2024-03-06T11:24:34;16.03;;;14.40;;
2480;SDS011;57396;48.742;9.128;2024-03-06T11:27:03;16.87;;;14.27;;
2480;SDS011;57396;48.742;9.128;2024-03-06T11:35:23;17.90;;;15.20;;
2480;SDS011;57396;48.742;9.128;2024-03-06T11:37:49;21.43;;;16.33;;
2480;SDS011;57396;48.742;9.128;2024-03-06T11:40:22;19.10;;;15.57;;
2480;SDS011;57396;48.742;9.128;2024-03-06T11:42:49;18.00;;;15.67;;
2480;SDS011;57396;48.742;9.128;2024-03-06T11:45:18;18.37;;;14.87;;
2480;SDS011;57396;48.742;9.128;2024-03-06T11:48:00;19.87;;;15.77;;
2480;SDS011;57396;48.742;9.128;2024-03-06T11:50:26;18.83;;;16.03;;
2480;SDS011;57396;48.742;9.128;2024-03-06T11:52:53;20.47;;;16.30;;
2480;SDS011;57396;48.742;9.128;2024-03-06T11:55:20;19.63;;;16.30;;
2480;SDS011;57396;48.742;9.128;2024-03-06T11:57:47;18.47;;;15.00;;
2480;SDS011;57396;48.742;9.128;2024-03-06T12:00:12;17.23;;;15.43;;
2480;SDS011;57396;48.742;9.128;2024-03-06T12:02:40;18.73;;;15.90;;
2480;SDS011;57396;48.742;9.128;2024-03-06T12:05:05;82.87;;;59.43;;
2480;SDS011;57396;48.742;9.128;2024-03-06T12:07:31;35.17;;;25.80;;
2480;SDS011;57396;48.742;9.128;2024-03-06T12:09:57;18.87;;;15.13;;
2480;SDS011;57396;48.742;9.128;2024-03-06T12:12:23;19.60;;;16.07;;
2480;SDS011;57396;48.742;9.128;2024-03-06T12:14:58;18.10;;;15.97;;
2480;SDS011;57396;48.742;9.128;2024-03-06T12:17:25;21.80;;;17.07;;
2480;SDS011;57396;48.742;9.128;2024-03-06T12:19:50;19.57;;;16.20;;
2480;SDS011;57396;48.742;9.128;2024-03-06T12:22:16;21.50;;;17.73;;
2480;SDS011;57396;48.742;9.128;2024-03-06T12:24:44;21.00;;;16.27;;
2480;SDS011;57396;48.742;9.128;2024-03-06T12:27:09;19.70;;;17.13;;
2480;SDS011;57396;48.742;9.128;2024-03-06T12:29:35;20.13;;;17.17;;
2480;SDS011;57396;48.742;9.128;2024-03-06T12:32:01;22.37;;;17.90;;
2480;SDS011;57396;48.742;9.128;2024-03-06T12:34:28;24.97;;;19.83;;
2480;SDS011;57396;48.742;9.128;2024-03-06T12:36:55;24.10;;;17.77;;
2480;SDS011;57396;48.742;9.128;2024-03-06T12:39:23;25.50;;;20.10;;
2480;SDS011;57396;48.742;9.128;2024-03-06T12:41:49;22.90;;;19.10;;
2480;SDS011;57396;48.742;9.128;2024-03-06T12:44:16;30.87;;;23.60;;
2480;SDS011;57396;48.742;9.128;2024-03-06T12:46:42;56.77;;;40.57;;
2480;SDS011;57396;48.742;9.128;2024-03-06T12:49:07;36.67;;;26.40;;
2480;SDS011;57396;48.742;9.128;2024-03-06T12:51:33;30.37;;;23.63;;
2480;SDS011;57396;48.742;9.128;2024-03-06T12:53:58;26.53;;;20.50;;
2480;SDS011;57396;48.742;9.128;2024-03-06T12:56:24;38.33;;;28.80;;
2480;SDS011;57396;48.742;9.128;2024-03-06T12:58:50;26.90;;;21.60;;
2480;SDS011;57396;48.742;9.128;2024-03-06T13:01:16;24.50;;;20.03;;
2480;SDS011;57396;48.742;9.128;2024-03-06T13:03:42;30.10;;;23.63;;
2480;SDS011;57396;48.742;9.128;2024-03-06T13:06:07;29.07;;;24.27;;
2480;SDS011;57396;48.742;9.128;2024-03-06T13:08:33;25.47;;;20.90;;
2480;SDS011;57396;48.742;9.128;2024-03-06T13:10:58;31.50;;;24.23;;
2480;SDS011;57396;48.742;9.128;2024-03-06T13:13:24;26.67;;;21.50;;
2480;SDS011;57396;48.742;9.128;2024-03-06T13:15:50;21.63;;;17.80;;
2480;SDS011;57396;48.742;9.128;2024-03-06T13:18:16;20.23;;;16.97;;
2480;SDS011;57396;48.742;9.128;2024-03-06T13:20:42;20.93;;;16.97;;
2480;SDS011;57396;48.742;9.128;2024-03-06T13:23:07;20.00;;;16.67;;
2480;SDS011;57396;48.742;9.128;2024-03-06T13:25:33;19.10;;;17.00;;
2480;SDS011;57396;48.742;9.128;2024-03-06T13:27:58;19.30;;;15.50;;
2480;SDS011;57396;48.742;9.128;2024-03-06T13:30:24;20.17;;;16.33;;
2480;SDS011;57396;48.742;9.128;2024-03-06T13:32:49;18.63;;;15.37;;
2480;SDS011;57396;48.742;9.128;2024-03-06T13:35:15;21.73;;;16.80;;
2480;SDS011;57396;48.742;9.128;2024-03-06T13:37:43;17.90;;;15.83;;
2480;SDS011;57396;48.742;9.128;2024-03-06T13:40:09;21.00;;;16.97;;
2480;SDS011;57396;48.742;9.128;2024-03-06T13:42:38;19.13;;;16.47;;
2480;SDS011;57396;48.742;9.128;2024-03-06T13:45:06;21.30;;;16.80;;
2480;SDS011;57396;48.742;9.128;2024-03-06T13:47:37;16.00;;;14.30;;
2480;SDS011;57396;48.742;9.128;2024-03-06T13:50:04;18.87;;;16.20;;
2480;SDS011;57396;48.742;9.128;2024-03-06T13:52:33;18.50;;;16.47;;
2480;SDS011;57396;48.742;9.128;2024-03-06T13:54:59;18.83;;;16.40;;
2480;SDS011;57396;48.742;9.128;2024-03-06T13:57:27;18.13;;;16.20;;
2480;SDS011;57396;48.742;9.128;2024-03-06T13:59:53;17.97;;;15.90;;
2480;SDS011;57396;48.742;9.128;2024-03-06T14:02:18;19.60;;;16.70;;
2480;SDS011;57396;48.742;9.128;2024-03-06T14:04:44;20.37;;;16.97;;
2480;SDS011;57396;48.742;9.128;2024-03-06T14:07:09;21.80;;;17.40;;
2480;SDS011;57396;48.742;9.128;2024-03-06T14:09:35;24.10;;;17.53;;
2480;SDS011;57396;48.742;9.128;2024-03-06T14:12:00;20.57;;;16.73;;
2480;SDS011;57396;48.742;9.128;2024-03-06T14:14:26;17.57;;;15.67;;
2480;SDS011;57396;48.742;9.128;2024-03-06T14:16:51;19.80;;;16.03;;
2480;SDS011;57396;48.742;9.128;2024-03-06T14:19:17;17.83;;;15.90;;
2480;SDS011;57396;48.742;9.128;2024-03-06T14:21:43;18.30;;;16.00;;
2480;SDS011;57396;48.742;9.128;2024-03-06T14:24:08;19.33;;;16.40;;
2480;SDS011;57396;48.742;9.128;2024-03-06T14:26:34;19.57;;;16.80;;
2480;SDS011;57396;48.742;9.128;2024-03-06T14:29:00;18.83;;;15.70;;
2480;SDS011;57396;48.742;9.128;2024-03-06T14:31:27;19.57;;;17.37;;
2480;SDS011;57396;48.742;9.128;2024-03-06T14:33:53;20.00;;;15.63;;
2480;SDS011;57396;48.742;9.128;2024-03-06T14:36:18;20.50;;;16.83;;
2480;SDS011;57396;48.742;9.128;2024-03-06T14:38:46;18.87;;;16.47;;
2480;SDS011;57396;48.742;9.128;2024-03-06T14:41:12;22.33;;;17.07;;
2480;SDS011;57396;48.742;9.128;2024-03-06T14:43:37;19.47;;;16.70;;
2480;SDS011;57396;48.742;9.128;2024-03-06T14:46:06;20.87;;;16.30;;
2480;SDS011;57396;48.742;9.128;2024-03-06T14:48:32;21.50;;;16.10;;
2480;SDS011;57396;48.742;9.128;2024-03-06T14:50:59;20.60;;;17.17;;
2480;SDS011;57396;48.742;9.128;2024-03-06T14:53:25;19.47;;;16.53;;
2480;SDS011;57396;48.742;9.128;2024-03-06T14:55:50;20.10;;;16.20;;